Time;durP1;ratioP1;P1;durP2;ratioP2;P2;SDS_P1;SDS_P2;PMS_P1;PMS_P2;Temp;Humidity;BMP_temperature;BMP_pressure;BME280_temperature;BME280_humidity;BME280_pressure;Samples;Min_cycle;Max_cycle;Signal;HPM_P1;HPM_P2
2022/04/25 00:02:25;;;;;;;11.87;6.53;;;11.10;1.00;;;;;;5115002;28;20212;-71
2022/04/25 00:04:51;;;;;;;9.47;6.07;;;11.10;1.00;;;;;;5114769;28;20231;-71
2022/04/25 00:07:17;;;;;;;9.53;5.73;;;11.00;1.00;;;;;;5114768;28;20170;-71
2022/04/25 00:09:43;;;;;;;9.60;6.00;;;10.90;1.00;;;;;;5114889;28;20577;-73
2022/04/25 00:12:09;;;;;;;10.90;6.20;;;10.80;1.00;;;;;;5096316;28;20172;-72
2022/04/25 00:14:35;;;;;;;9.87;5.90;;;10.70;1.00;;;;;;5114973;28;20228;-72
2022/04/25 00:17:00;;;;;;;7.67;6.17;;;10.70;1.00;;;;;;5096472;28;20171;-71
2022/04/25 00:19:27;;;;;;;8.23;6.10;;;10.60;1.00;;;;;;5096281;28;20195;-72
2022/04/25 00:21:52;;;;;;;11.77;5.70;;;10.50;1.00;;;;;;5114669;28;20710;-72
2022/04/25 00:24:19;;;;;;;7.60;5.97;;;10.50;1.00;;;;;;5114370;28;20195;-72
2022/04/25 00:26:44;;;;;;;7.17;6.40;;;10.50;1.00;;;;;;5114130;28;20167;-71
2022/04/25 00:29:11;;;;;;;8.67;6.50;;;10.50;1.00;;;;;;5114593;28;20630;-72
2022/04/25 00:31:38;;;;;;;8.27;6.27;;;10.50;1.00;;;;;;5114524;28;20207;-71
2022/04/25 00:34:04;;;;;;;14.17;5.83;;;10.40;1.00;;;;;;5114461;28;20202;-71
2022/04/25 00:36:29;;;;;;;9.20;5.93;;;10.40;1.00;;;;;;5114334;28;20222;-71
2022/04/25 00:38:55;;;;;;;9.27;6.60;;;10.40;1.00;;;;;;5114192;28;20179;-72
2022/04/25 00:41:21;;;;;;;11.03;7.00;;;10.30;1.00;;;;;;5113606;28;20181;-72
2022/04/25 00:43:46;;;;;;;14.57;8.53;;;10.30;1.00;;;;;;5114184;28;20220;-72
2022/04/25 00:46:24;;;;;;;8.77;6.20;;;10.30;1.00;;;;;;5114376;28;20649;-72
2022/04/25 00:48:49;;;;;;;10.93;6.30;;;10.30;1.00;;;;;;5114314;28;20194;-72
2022/04/25 00:51:16;;;;;;;8.40;6.00;;;10.20;1.00;;;;;;5114020;28;20635;-72
2022/04/25 00:53:44;;;;;;;8.37;5.57;;;10.20;1.00;;;;;;5113585;28;20175;-72
2022/04/25 00:56:13;;;;;;;7.20;6.50;;;10.20;1.00;;;;;;5113433;28;20212;-72
2022/04/25 00:58:39;;;;;;;9.73;6.00;;;10.20;1.00;;;;;;5114170;28;20175;-72
2022/04/25 01:01:05;;;;;;;7.90;6.37;;;10.10;1.00;;;;;;5113969;28;20163;-72
2022/04/25 01:03:30;;;;;;;6.97;6.23;;;10.10;1.00;;;;;;5113843;28;20175;-72
2022/04/25 01:05:56;;;;;;;8.97;6.50;;;10.10;1.00;;;;;;5113834;28;20182;-71
2022/04/25 01:08:21;;;;;;;11.23;6.57;;;9.90;1.00;;;;;;5095263;28;20198;-71
2022/04/25 01:10:48;;;;;;;9.37;6.33;;;9.80;6.70;;;;;;5114009;28;20221;-72
2022/04/25 01:13:14;;;;;;;8.57;6.70;;;9.70;11.20;;;;;;5113862;28;20195;-72
2022/04/25 01:15:40;;;;;;;12.03;7.03;;;9.70;14.30;;;;;;5113840;28;20171;-72
2022/04/25 01:18:06;;;;;;;11.37;7.20;;;9.70;14.40;;;;;;5113657;28;20210;-72
2022/04/25 01:20:32;;;;;;;9.00;7.10;;;9.70;13.40;;;;;;5113513;28;20167;-72
2022/04/25 01:28:38;;;;;;;8.97;7.10;;;9.50;19.30;;;;;;5114027;28;20253;-72
2022/04/25 01:31:04;;;;;;;8.27;6.83;;;9.60;19.50;;;;;;5113436;28;20224;-72
2022/04/25 01:33:30;;;;;;;9.90;8.10;;;9.50;20.80;;;;;;5113503;28;20163;-71
2022/04/25 01:35:55;;;;;;;11.13;7.30;;;9.40;24.00;;;;;;5095074;28;20195;-70
2022/04/25 01:38:21;;;;;;;11.43;7.93;;;9.40;26.70;;;;;;5094772;28;20660;-72
2022/04/25 01:40:47;;;;;;;13.23;7.27;;;9.30;29.50;;;;;;5113427;28;20167;-71
2022/04/25 01:43:12;;;;;;;10.73;7.97;;;9.30;31.90;;;;;;5113511;28;20208;-72
2022/04/25 01:45:41;;;;;;;11.83;7.77;;;9.20;34.00;;;;;;5113456;28;20210;-72
2022/04/25 01:48:07;;;;;;;10.87;7.50;;;9.20;38.70;;;;;;5113571;28;20179;-72
2022/04/25 01:50:32;;;;;;;14.43;8.20;;;9.20;40.60;;;;;;5113180;28;20167;-71
2022/04/25 01:52:58;;;;;;;16.30;8.60;;;9.10;40.80;;;;;;5094748;28;20171;-71
2022/04/25 01:55:24;;;;;;;12.57;8.50;;;9.20;39.60;;;;;;5097490;28;20529;-71
2022/04/25 01:57:49;;;;;;;16.57;8.07;;;9.20;42.90;;;;;;5117506;28;20682;-72
2022/04/25 02:00:15;;;;;;;12.60;8.27;;;9.10;44.50;;;;;;5117385;28;20171;-72
2022/04/25 02:02:41;;;;;;;12.73;8.43;;;9.10;46.80;;;;;;5099142;28;20586;-71
2022/04/25 02:05:07;;;;;;;12.67;8.43;;;9.10;47.30;;;;;;5117142;28;20226;-72
2022/04/25 02:07:33;;;;;;;12.23;9.03;;;9.10;47.00;;;;;;5116800;28;20228;-72
2022/04/25 02:09:59;;;;;;;12.67;8.43;;;9.10;45.90;;;;;;5117198;28;20167;-72
2022/04/25 02:12:25;;;;;;;12.73;9.03;;;9.20;45.80;;;;;;5099055;28;20180;-71
2022/04/25 02:14:51;;;;;;;13.40;8.53;;;9.20;45.70;;;;;;5117306;28;20182;-71
2022/04/25 02:17:16;;;;;;;11.77;9.13;;;9.10;45.70;;;;;;5117298;28;20179;-72
2022/04/25 02:19:44;;;;;;;13.43;9.40;;;9.10;46.50;;;;;;5116813;28;20181;-72
2022/04/25 02:22:11;;;;;;;16.23;8.70;;;9.10;46.80;;;;;;5116709;28;20262;-71
2022/04/25 02:24:38;;;;;;;13.03;9.07;;;9.10;48.50;;;;;;5116692;28;20219;-72
2022/04/25 02:27:05;;;;;;;16.37;8.77;;;9.00;49.90;;;;;;5116904;28;20167;-72
2022/04/25 02:29:35;;;;;;;15.13;9.43;;;9.00;52.50;;;;;;5116743;28;20228;-71
2022/04/25 02:32:02;;;;;;;15.73;9.77;;;9.00;54.30;;;;;;5117005;28;20190;-72
2022/04/25 02:34:29;;;;;;;15.57;9.47;;;8.90;59.00;;;;;;5098345;28;20179;-72
2022/04/25 02:36:55;;;;;;;12.37;9.30;;;8.90;61.00;;;;;;5116152;28;20214;-71
2022/04/25 02:39:22;;;;;;;12.90;10.13;;;8.90;62.60;;;;;;5116827;28;20167;-72
2022/04/25 02:41:48;;;;;;;18.70;9.90;;;8.90;64.60;;;;;;5116521;28;20183;-72
2022/04/25 02:44:14;;;;;;;14.70;9.77;;;8.90;62.80;;;;;;5116397;28;20209;-71
2022/04/25 02:46:39;;;;;;;15.10;10.07;;;8.90;61.80;;;;;;5116414;28;20178;-71
2022/04/25 02:49:05;;;;;;;16.40;9.73;;;9.00;61.70;;;;;;5097868;28;20174;-71
2022/04/25 02:51:30;;;;;;;14.90;10.07;;;9.00;61.60;;;;;;5097476;28;20175;-71
2022/04/25 02:53:56;;;;;;;14.77;10.73;;;9.00;60.30;;;;;;5116407;28;20203;-71
2022/04/25 02:56:22;;;;;;;17.40;10.43;;;8.90;62.20;;;;;;5116037;28;20658;-72
2022/04/25 02:58:47;;;;;;;13.80;10.63;;;8.90;62.80;;;;;;5116118;28;20559;-72
2022/04/25 03:01:13;;;;;;;14.03;10.50;;;9.00;63.70;;;;;;5116167;28;20175;-72
2022/04/25 03:03:39;;;;;;;13.67;10.40;;;8.90;64.90;;;;;;5116001;28;20175;-72
2022/04/25 03:06:07;;;;;;;18.10;10.80;;;8.90;65.80;;;;;;5114393;28;20230;-72
2022/04/25 03:08:34;;;;;;;17.60;12.13;;;8.80;68.30;;;;;;5116050;28;20277;-72
2022/04/25 03:11:03;;;;;;;15.63;10.97;;;8.80;68.50;;;;;;5116147;28;20533;-71
2022/04/25 03:13:28;;;;;;;17.43;11.23;;;8.80;71.10;;;;;;5115695;28;20194;-71
2022/04/25 03:15:54;;;;;;;14.20;11.30;;;8.80;72.40;;;;;;5115775;28;20626;-72
2022/04/25 03:18:21;;;;;;;20.47;12.33;;;8.70;71.90;;;;;;5115549;28;20514;-72
2022/04/25 03:20:49;;;;;;;20.07;12.30;;;8.70;73.30;;;;;;5114779;28;20167;-72
2022/04/25 03:23:20;;;;;;;19.43;12.50;;;8.70;73.10;;;;;;5115449;28;20213;-72
2022/04/25 03:25:46;;;;;;;16.47;12.57;;;8.80;73.20;;;;;;5115684;28;20199;-71
2022/04/25 03:28:12;;;;;;;16.93;12.80;;;8.80;71.60;;;;;;5115640;28;20175;-72
2022/04/25 03:30:38;;;;;;;20.40;12.17;;;8.80;71.80;;;;;;5115340;28;20183;-71
2022/04/25 03:33:03;;;;;;;19.07;12.83;;;8.80;71.90;;;;;;5114202;28;20171;-71
2022/04/25 03:35:30;;;;;;;22.80;13.13;;;8.80;70.90;;;;;;5115104;28;20544;-71
2022/04/25 03:37:57;;;;;;;18.13;13.40;;;8.70;70.20;;;;;;5115557;28;20258;-71
2022/04/25 03:40:24;;;;;;;20.53;13.97;;;8.70;70.70;;;;;;5114730;28;20667;-71
2022/04/25 03:42:50;;;;;;;19.93;14.30;;;8.70;71.90;;;;;;5115041;28;20172;-72
2022/04/25 03:45:17;;;;;;;23.30;14.27;;;8.70;73.90;;;;;;5115050;28;20218;-72
2022/04/25 03:47:44;;;;;;;20.17;14.17;;;8.60;74.90;;;;;;5096695;28;20178;-72
2022/04/25 03:50:11;;;;;;;20.00;14.40;;;8.70;75.50;;;;;;5114628;28;20194;-72
2022/04/25 03:52:38;;;;;;;20.60;14.30;;;8.70;74.70;;;;;;5114346;28;20167;-71
2022/04/25 03:57:49;;;;;;;20.13;14.03;;;8.60;75.60;;;;;;5114831;28;20735;-71
2022/04/25 04:00:15;;;;;;;28.60;13.93;;;8.50;79.00;;;;;;5115342;28;20246;-71
2022/04/25 04:02:40;;;;;;;24.10;15.37;;;8.50;82.00;;;;;;5114093;28;20208;-71
2022/04/25 04:05:06;;;;;;;19.17;14.07;;;8.50;81.70;;;;;;5114602;28;20195;-71
2022/04/25 04:07:32;;;;;;;23.63;14.93;;;8.50;79.90;;;;;;5114547;28;20159;-71
2022/04/25 04:09:58;;;;;;;22.10;14.77;;;8.50;80.40;;;;;;5114211;28;20179;-71
2022/04/25 04:12:31;;;;;;;19.53;14.30;;;8.50;80.10;;;;;;5114063;28;20190;-71
2022/04/25 04:14:58;;;;;;;22.43;14.67;;;8.40;82.10;;;;;;5114305;28;20612;-72
2022/04/25 04:17:25;;;;;;;26.40;15.47;;;8.40;84.50;;;;;;5113732;28;20194;-71
2022/04/25 04:19:53;;;;;;;20.23;15.27;;;8.40;84.80;;;;;;5114296;28;20180;-72
2022/04/25 04:22:21;;;;;;;29.40;16.30;;;8.40;85.80;;;;;;5114143;28;20232;-72
2022/04/25 04:24:47;;;;;;;26.03;16.40;;;8.40;84.40;;;;;;5114434;28;20261;-71
2022/04/25 04:27:14;;;;;;;23.47;15.60;;;8.50;83.10;;;;;;5095568;28;20176;-72
2022/04/25 04:29:40;;;;;;;21.93;16.60;;;8.40;82.90;;;;;;5113972;28;20187;-71
2022/04/25 04:32:07;;;;;;;26.40;16.40;;;8.40;83.10;;;;;;5112946;28;20224;-72
2022/04/25 04:34:34;;;;;;;24.03;17.00;;;8.40;85.30;;;;;;5113789;28;20171;-71
2022/04/25 04:37:00;;;;;;;25.67;17.07;;;8.40;86.70;;;;;;5113853;28;20311;-71
2022/04/25 04:39:26;;;;;;;26.30;17.77;;;8.50;86.40;;;;;;5113634;28;20171;-72
2022/04/25 04:41:51;;;;;;;26.20;17.00;;;8.60;85.90;;;;;;5113381;28;20208;-72
2022/04/25 04:44:17;;;;;;;24.23;16.40;;;8.70;83.40;;;;;;5095604;28;20283;-72
2022/04/25 04:46:43;;;;;;;27.87;17.57;;;8.80;84.70;;;;;;5113209;28;20166;-72
2022/04/25 04:49:09;;;;;;;24.53;17.33;;;8.90;83.10;;;;;;5113087;28;20178;-72
2022/04/25 04:51:35;;;;;;;28.30;16.90;;;9.10;78.50;;;;;;5113012;28;20228;-72
2022/04/25 04:54:02;;;;;;;27.37;17.63;;;9.40;80.70;;;;;;5112984;28;20249;-72
2022/04/25 04:56:31;;;;;;;24.30;16.57;;;9.60;69.70;;;;;;5094597;28;20203;-71
2022/04/25 04:58:58;;;;;;;23.20;15.70;;;9.90;55.80;;;;;;5112980;28;20182;-72
2022/04/25 05:01:24;;;;;;;20.43;14.93;;;10.20;40.50;;;;;;5113100;28;20163;-72
2022/04/25 05:03:50;;;;;;;19.50;15.10;;;10.50;25.70;;;;;;5112759;28;20213;-72
2022/04/25 05:06:16;;;;;;;20.97;14.93;;;11.00;16.00;;;;;;5094647;28;20175;-72
2022/04/25 05:08:42;;;;;;;26.03;15.37;;;11.40;1.00;;;;;;5112342;28;20263;-72
2022/04/25 05:11:09;;;;;;;18.33;13.87;;;11.60;1.00;;;;;;5112637;28;20262;-72
2022/04/25 05:13:36;;;;;;;17.13;14.20;;;12.00;1.00;;;;;;5113075;28;20182;-72
2022/04/25 05:16:03;;;;;;;23.13;14.50;;;12.30;1.00;;;;;;5093924;28;20171;-72
2022/04/25 05:18:32;;;;;;;23.37;14.87;;;12.90;1.00;;;;;;5094158;28;20733;-72
2022/04/25 05:20:58;;;;;;;20.47;14.10;;;13.30;1.00;;;;;;5112903;28;20167;-72
2022/04/25 05:23:24;;;;;;;21.57;13.93;;;13.80;1.00;;;;;;5111656;28;20167;-70
2022/04/25 05:25:50;;;;;;;23.00;14.80;;;14.60;99.90;;;;;;5094384;28;20306;-72
2022/04/25 05:28:15;;;;;;;18.43;13.77;;;15.20;1.00;;;;;;5112693;28;20262;-71
2022/04/25 05:30:42;;;;;;;19.80;13.60;;;15.80;1.00;;;;;;5110995;28;20602;-73
2022/04/25 05:33:09;;;;;;;22.50;14.40;;;16.40;1.00;;;;;;5111814;28;20622;-72
2022/04/25 05:35:35;;;;;;;20.57;13.43;;;17.00;99.90;;;;;;5112286;28;20209;-74
2022/04/25 05:38:01;;;;;;;16.43;14.00;;;17.50;1.00;;;;;;5112544;28;20164;-72
2022/04/25 05:40:27;;;;;;;16.70;13.13;;;17.80;99.90;;;;;;5111843;28;20178;-74
2022/04/25 05:42:56;;;;;;;19.87;13.07;;;18.50;1.00;;;;;;5112385;28;20269;-74
2022/04/25 05:45:23;;;;;;;17.87;12.70;;;18.90;1.00;;;;;;5111726;28;20529;-75
2022/04/25 05:47:50;;;;;;;17.73;12.63;;;19.30;1.00;;;;;;5093585;28;20260;-73
2022/04/25 05:53:02;;;;;;;19.65;13.57;;;19.80;99.90;;;;;;5112087;28;20223;-73
2022/04/25 05:55:28;;;;;;;17.55;13.63;;;20.30;99.90;;;;;;5111375;28;20242;-74
2022/04/25 05:57:55;;;;;;;19.90;13.75;;;20.90;99.90;;;;;;5111749;28;20302;-74
2022/04/25 06:00:20;;;;;;;16.35;12.85;;;21.10;99.90;;;;;;5111209;28;20171;-75
2022/04/25 06:02:47;;;;;;;17.10;13.23;;;20.70;99.90;;;;;;5110621;28;20606;-75
2022/04/25 06:05:15;;;;;;;14.98;13.15;;;20.30;99.90;;;;;;5111894;28;20210;-74
2022/04/25 06:07:45;;;;;;;19.65;14.32;;;19.30;99.90;;;;;;5111617;28;20168;-74
2022/04/25 06:10:12;;;;;;;18.50;12.70;;;19.00;99.90;;;;;;5111832;28;20175;-74
2022/04/25 06:12:48;;;;;;;15.77;12.73;;;18.70;99.90;;;;;;5111407;28;20164;-74
2022/04/25 06:15:16;;;;;;;16.60;13.00;;;18.40;1.00;;;;;;5111723;28;20174;-75
2022/04/25 06:17:41;;;;;;;20.85;13.77;;;18.90;1.00;;;;;;5093370;28;20182;-76
2022/04/25 06:20:09;;;;;;;15.30;13.43;;;19.60;99.90;;;;;;5111009;28;20262;-76
2022/04/25 06:22:35;;;;;;;15.60;12.65;;;20.60;99.90;;;;;;5111220;28;20214;-77
2022/04/25 06:25:02;;;;;;;15.27;12.95;;;20.80;99.90;;;;;;5110818;28;20630;-78
2022/04/25 06:27:28;;;;;;;15.55;12.18;;;21.40;99.90;;;;;;5111073;28;20175;-78
2022/04/25 06:29:53;;;;;;;21.17;12.90;;;22.10;99.90;;;;;;5110958;28;20583;-77
2022/04/25 06:32:20;;;;;;;16.10;12.18;;;22.70;99.90;;;;;;5111647;28;20171;-79
2022/04/25 06:34:46;;;;;;;15.38;12.25;;;22.90;99.90;;;;;;5110561;28;20209;-80
2022/04/25 06:37:13;;;;;;;15.85;13.98;;;23.10;99.90;;;;;;5111524;28;20198;-79
2022/04/25 06:39:39;;;;;;;17.55;12.00;;;23.20;99.90;;;;;;5111138;28;20170;-79
2022/04/25 06:42:05;;;;;;;15.75;12.15;;;23.00;99.90;;;;;;5114417;28;20171;-77
2022/04/25 06:44:31;;;;;;;14.77;10.88;;;22.80;99.90;;;;;;5115246;28;20290;-76
2022/04/25 06:46:58;;;;;;;14.57;11.43;;;22.00;99.90;;;;;;5115441;28;20163;-79
2022/04/25 06:49:23;;;;;;;14.18;11.85;;;20.70;99.90;;;;;;5115155;28;20497;-79
2022/04/25 06:51:51;;;;;;;21.13;12.50;;;19.70;99.90;;;;;;5113872;28;20228;-79
2022/04/25 06:54:18;;;;;;;15.30;11.50;;;20.80;99.90;;;;;;5107421;28;20190;-78
2022/04/25 06:56:43;;;;;;;16.38;11.15;;;21.50;99.90;;;;;;5109631;28;20551;-79
2022/04/25 06:59:09;;;;;;;13.60;11.00;;;21.50;99.90;;;;;;5113915;28;20243;-80
2022/04/25 07:01:36;;;;;;;14.20;11.48;;;21.30;99.90;;;;;;5114422;28;20167;-78
2022/04/25 07:04:02;;;;;;;18.85;11.57;;;19.50;99.90;;;;;;5114270;28;20198;-77
2022/04/25 07:06:28;;;;;;;14.95;10.90;;;18.60;99.90;;;;;;5114065;28;20159;-76
2022/04/25 07:08:54;;;;;;;15.52;10.88;;;18.70;99.90;;;;;;5113174;28;20175;-75
2022/04/25 07:11:19;;;;;;;14.73;11.90;;;18.30;99.90;;;;;;5113263;28;20182;-74
2022/04/25 07:13:46;;;;;;;16.30;12.43;;;16.40;1.00;;;;;;5113640;28;20214;-74
2022/04/25 07:16:12;;;;;;;16.03;12.90;;;15.50;1.00;;;;;;5112991;28;20171;-73
2022/04/25 07:18:38;;;;;;;18.67;12.37;;;16.00;1.00;;;;;;5113929;28;20202;-73
2022/04/25 07:29:17;;;;;;;16.93;13.80;;;15.00;99.90;;;;;;5114787;28;20525;-72
2022/04/25 07:31:43;;;;;;;18.57;15.03;;;14.00;18.60;;;;;;5114186;28;20198;-72
2022/04/25 07:34:09;;;;;;;19.20;14.67;;;13.30;99.90;;;;;;5112840;28;20626;-71
2022/04/25 07:36:36;;;;;;;21.10;14.97;;;13.30;99.90;;;;;;5113826;28;20646;-71
2022/04/25 07:39:05;;;;;;;21.37;15.40;;;12.80;1.00;;;;;;5113899;28;20559;-71
2022/04/25 07:41:30;;;;;;;19.27;14.03;;;12.30;1.00;;;;;;5094857;28;20193;-72
2022/04/25 07:43:57;;;;;;;21.83;14.47;;;12.30;1.00;;;;;;5113293;28;20195;-72
2022/04/25 07:46:25;;;;;;;22.90;14.53;;;12.40;1.00;;;;;;5097242;28;20195;-72
2022/04/25 07:48:51;;;;;;;18.93;14.03;;;12.40;1.00;;;;;;5113982;28;20171;-72
2022/04/25 07:51:18;;;;;;;22.37;13.97;;;12.10;1.00;;;;;;5094146;28;20171;-72
2022/04/25 07:53:43;;;;;;;22.57;14.27;;;12.30;1.00;;;;;;5093999;28;20312;-72
2022/04/25 07:56:10;;;;;;;24.03;14.30;;;12.50;1.00;;;;;;5094881;28;20681;-72
2022/04/25 07:58:36;;;;;;;23.23;15.47;;;12.80;1.00;;;;;;5094926;28;20181;-72
2022/04/25 08:01:03;;;;;;;18.97;13.67;;;13.60;1.00;;;;;;5111453;28;20167;-72
2022/04/25 08:03:29;;;;;;;20.80;14.03;;;14.50;1.00;;;;;;5112745;28;20254;-72
2022/04/25 08:05:55;;;;;;;22.93;14.00;;;14.40;1.00;;;;;;5094583;28;20574;-73
2022/04/25 08:08:20;;;;;;;18.03;12.17;;;14.60;1.00;;;;;;5113855;28;20171;-72
2022/04/25 08:10:46;;;;;;;19.10;12.73;;;14.60;99.90;;;;;;5077593;28;20700;-73
2022/04/25 08:18:41;;;;;;;15.07;12.07;;;15.20;99.90;;;;;;5114053;28;20308;-72
2022/04/25 08:21:07;;;;;;;16.37;12.50;;;15.10;1.00;;;;;;5113464;28;20610;-72
2022/04/25 08:23:32;;;;;;;18.03;12.47;;;15.00;99.90;;;;;;5113025;28;20246;-72
2022/04/25 08:25:58;;;;;;;20.97;13.87;;;14.70;99.90;;;;;;5112762;28;20203;-72
2022/04/25 08:28:25;;;;;;;16.87;12.60;;;14.50;26.40;;;;;;5113358;28;20163;-72
2022/04/25 08:30:52;;;;;;;20.30;14.10;;;14.40;1.00;;;;;;5113142;28;20167;-71
2022/04/25 08:33:18;;;;;;;18.03;13.60;;;14.30;1.00;;;;;;5112152;28;20251;-72
2022/04/25 08:35:43;;;;;;;20.00;14.70;;;14.30;68.40;;;;;;5077869;28;20598;-72
2022/04/25 08:38:09;;;;;;;21.60;15.13;;;14.10;1.00;;;;;;5112658;28;20168;-72
2022/04/25 08:40:36;;;;;;;20.60;14.17;;;13.30;99.90;;;;;;5095566;28;20191;-72
2022/04/25 08:43:04;;;;;;;21.63;14.40;;;13.10;51.60;;;;;;5113089;28;20168;-72
2022/04/25 08:45:30;;;;;;;23.33;14.17;;;12.80;1.00;;;;;;5112750;28;20222;-72
2022/04/25 08:47:58;;;;;;;19.37;14.17;;;12.80;1.00;;;;;;5095138;28;20254;-72
2022/04/25 08:50:24;;;;;;;15.53;13.10;;;13.20;99.90;;;;;;5112749;28;20170;-72
2022/04/25 08:52:52;;;;;;;18.83;14.17;;;13.30;1.00;;;;;;5093583;28;20599;-72
2022/04/25 08:55:18;;;;;;;17.63;13.80;;;13.20;29.60;;;;;;5112730;28;20648;-71
2022/04/25 08:57:45;;;;;;;21.03;14.97;;;13.10;99.90;;;;;;5094359;28;20223;-71
2022/04/25 09:00:11;;;;;;;18.83;14.07;;;13.40;1.00;;;;;;5112860;28;20613;-72
2022/04/25 09:02:40;;;;;;;22.33;14.70;;;13.80;1.00;;;;;;5093783;28;20175;-73
2022/04/25 09:05:07;;;;;;;21.67;14.93;;;14.30;1.00;;;;;;5110572;28;20693;-72
2022/04/25 09:07:37;;;;;;;17.03;12.87;;;14.10;99.90;;;;;;5112403;28;20630;-72
2022/04/25 09:10:09;;;;;;;26.10;16.60;;;13.90;99.90;;;;;;5112771;28;20251;-72
2022/04/25 09:12:41;;;;;;;20.20;13.63;;;13.50;99.90;;;;;;5094796;28;20163;-72
2022/04/25 09:15:08;;;;;;;16.77;13.03;;;14.00;99.90;;;;;;5112944;28;20174;-71
2022/04/25 09:17:37;;;;;;;19.63;13.80;;;14.10;1.00;;;;;;5102416;28;20194;-71
2022/04/25 09:20:04;;;;;;;19.07;13.33;;;13.60;1.00;;;;;;5112805;27;20626;-72
2022/04/25 09:22:39;;;;;;;21.73;13.37;;;13.50;99.90;;;;;;5110524;28;20646;-72
2022/04/25 09:25:10;;;;;;;16.83;13.40;;;13.50;99.90;;;;;;5112243;28;20287;-71
2022/04/25 09:27:37;;;;;;;20.10;12.90;;;13.60;31.10;;;;;;5111721;28;20167;-72
2022/04/25 09:30:18;;;;;;;17.67;12.40;;;14.00;77.00;;;;;;5112038;28;20503;-72
2022/04/25 09:32:45;;;;;;;13.30;11.70;;;13.50;99.90;;;;;;5111261;28;20257;-71
2022/04/25 09:35:44;;;;;;;17.10;12.00;;;13.10;99.90;;;;;;5110911;28;20662;-72
2022/04/25 09:38:10;;;;;;;16.43;12.83;;;13.10;99.90;;;;;;5007257;28;20316;-70
2022/04/25 09:40:38;;;;;;;19.40;13.00;;;13.10;99.90;;;;;;5009668;28;20277;-72
2022/04/25 09:43:12;;;;;;;17.83;12.90;;;13.30;1.00;;;;;;5008983;28;20218;-72
2022/04/25 09:45:42;;;;;;;15.13;12.73;;;13.60;1.00;;;;;;5009260;28;20755;-72
2022/04/25 09:48:23;;;;;;;14.20;12.17;;;13.90;1.00;;;;;;5008875;28;20666;-71
2022/04/25 09:51:10;;;;;;;17.93;12.53;;;13.70;99.90;;;;;;5008810;28;20244;-72
2022/04/25 09:53:52;;;;;;;14.67;11.53;;;14.00;1.00;;;;;;5008891;28;20273;-72
2022/04/25 09:56:26;;;;;;;15.40;10.80;;;13.80;99.90;;;;;;5008940;28;20178;-73
2022/04/25 09:59:03;;;;;;;17.10;10.90;;;13.90;1.00;;;;;;4992106;28;20248;-72
2022/04/25 10:01:30;;;;;;;18.80;10.73;;;14.70;1.00;;;;;;5009780;28;20190;-73
2022/04/25 10:03:56;;;;;;;13.97;11.20;;;15.40;99.90;;;;;;5008228;28;20183;-74
2022/04/25 10:06:23;;;;;;;17.50;12.10;;;16.40;1.00;;;;;;5009142;28;20205;-74
2022/04/25 10:08:50;;;;;;;15.00;10.70;;;17.20;1.00;;;;;;5008742;28;20679;-74
2022/04/25 10:11:19;;;;;;;15.90;11.63;;;18.10;1.00;;;;;;5008604;28;20225;-74
2022/04/25 10:13:46;;;;;;;12.50;10.97;;;17.70;99.90;;;;;;5025194;28;20601;-74
2022/04/25 10:16:12;;;;;;;13.27;10.93;;;16.60;1.00;;;;;;5091908;28;20164;-74
2022/04/25 10:18:39;;;;;;;16.87;11.20;;;16.50;1.00;;;;;;5095670;28;20580;-72
2022/04/25 10:21:07;;;;;;;14.63;11.40;;;16.90;1.00;;;;;;5093917;28;20199;-72
2022/04/25 10:23:34;;;;;;;15.00;11.67;;;17.30;1.00;;;;;;5094909;28;20272;-72
2022/04/25 10:26:00;;;;;;;13.73;12.33;;;17.30;1.00;;;;;;5094135;28;20273;-70
2022/04/25 10:28:45;;;;;;;20.27;12.77;;;17.10;1.00;;;;;;5094985;28;20251;-71
2022/04/25 10:31:23;;;;;;;15.10;11.90;;;17.00;1.00;;;;;;5094756;28;20180;-72
2022/04/25 10:33:54;;;;;;;16.33;12.20;;;16.70;99.90;;;;;;5093893;28;20201;-71
2022/04/25 10:36:38;;;;;;;14.30;12.43;;;16.80;99.90;;;;;;5094353;28;20204;-71
2022/04/25 10:39:24;;;;;;;19.90;12.67;;;16.90;99.90;;;;;;5084546;28;20179;-71
2022/04/25 10:44:36;;;;;;;14.83;12.70;;;16.20;1.00;;;;;;5095206;28;20583;-72
2022/04/25 10:47:05;;;;;;;17.60;13.17;;;16.20;1.00;;;;;;5093443;28;20172;-73
2022/04/25 10:49:34;;;;;;;16.80;12.30;;;16.00;99.90;;;;;;5092216;28;20172;-72
2022/04/25 10:52:01;;;;;;;20.27;12.53;;;16.00;99.90;;;;;;5094242;28;20251;-73
2022/04/25 10:54:45;;;;;;;14.47;10.67;;;15.70;1.00;;;;;;5094375;28;20183;-72
2022/04/25 10:57:11;;;;;;;18.47;12.03;;;15.50;1.00;;;;;;5103638;28;20219;-73
2022/04/25 10:59:40;;;;;;;16.43;12.83;;;15.30;99.90;;;;;;5114289;28;20163;-72
2022/04/25 11:02:23;;;;;;;20.27;15.33;;;15.00;1.00;;;;;;5095411;28;20215;-72
2022/04/25 11:05:09;;;;;;;17.57;14.00;;;15.00;1.00;;;;;;5114402;28;20309;-72
2022/04/25 11:07:40;;;;;;;13.97;12.23;;;15.10;99.90;;;;;;5096732;28;20646;-72
2022/04/25 11:10:07;;;;;;;16.23;12.70;;;14.80;99.90;;;;;;5113811;28;20167;-72
2022/04/25 11:12:58;;;;;;;17.13;12.87;;;15.00;1.00;;;;;;5113127;28;20175;-71
2022/04/25 11:15:44;;;;;;;17.70;14.60;;;14.90;1.00;;;;;;5113531;28;20203;-72
2022/04/25 11:18:38;;;;;;;16.77;14.13;;;14.80;33.30;;;;;;5113552;28;20258;-72
2022/04/25 11:21:09;;;;;;;19.03;14.27;;;14.70;99.90;;;;;;5114391;28;20626;-72
2022/04/25 11:23:43;;;;;;;19.43;14.30;;;14.60;99.90;;;;;;5114005;28;20171;-72
2022/04/25 11:26:30;;;;;;;16.23;13.63;;;14.80;1.00;;;;;;5114125;28;20212;-72
2022/04/25 11:29:01;;;;;;;18.67;14.33;;;15.00;99.90;;;;;;5095552;28;20187;-71
2022/04/25 11:31:31;;;;;;;17.93;13.37;;;15.20;1.00;;;;;;5092486;28;20252;-72
2022/04/25 11:34:01;;;;;;;14.83;13.23;;;15.50;99.90;;;;;;5110463;28;20547;-71
2022/04/25 11:36:29;;;;;;;16.70;13.33;;;15.60;99.90;;;;;;5095144;28;20578;-71
2022/04/25 11:41:40;;;;;;;14.73;13.00;;;16.00;99.90;;;;;;5113910;28;20657;-72
2022/04/25 11:44:06;;;;;;;15.73;13.30;;;16.10;1.00;;;;;;5113182;28;20271;-72
2022/04/25 11:46:34;;;;;;;16.80;13.57;;;16.30;99.90;;;;;;5102172;28;20183;-71
2022/04/25 11:49:00;;;;;;;15.37;12.70;;;16.60;1.00;;;;;;5107173;28;20239;-72
2022/04/25 11:51:30;;;;;;;15.47;12.13;;;16.80;99.90;;;;;;5113653;28;20701;-71
2022/04/25 11:53:58;;;;;;;14.18;11.55;;;17.20;74.90;;;;;;5093887;28;20189;-72
2022/04/25 11:56:26;;;;;;;13.27;11.90;;;18.20;1.00;;;;;;5111016;28;20214;-72
2022/04/25 11:58:52;;;;;;;11.43;9.02;;;19.40;99.90;;;;;;5101469;28;20175;-74
2022/04/25 12:01:38;;;;;;;9.05;7.78;;;19.40;99.90;;;;;;5112777;28;20536;-71
2022/04/25 12:04:20;;;;;;;16.02;8.90;;;18.70;99.90;;;;;;5113159;28;20175;-72
2022/04/25 12:06:54;;;;;;;13.98;9.80;;;17.80;1.00;;;;;;5112747;28;20274;-70
2022/04/25 12:17:46;;;;;;;15.17;11.77;;;15.70;1.00;;;;;;5113078;28;20182;-70
2022/04/25 12:20:14;;;;;;;18.23;11.97;;;15.40;99.90;;;;;;5112548;28;20183;-70
2022/04/25 12:22:54;;;;;;;14.40;10.67;;;15.30;99.90;;;;;;5113191;28;20175;-70
2022/04/25 12:25:25;;;;;;;13.87;11.33;;;15.10;99.90;;;;;;5093260;28;20700;-70
2022/04/25 12:28:13;;;;;;;14.40;11.83;;;14.90;1.00;;;;;;5112791;28;20702;-70
2022/04/25 12:30:48;;;;;;;14.17;12.33;;;14.70;1.00;;;;;;5112991;28;20171;-70
2022/04/25 12:33:14;;;;;;;18.60;12.73;;;14.60;1.00;;;;;;5094799;28;20191;-70
2022/04/25 12:35:41;;;;;;;16.47;13.00;;;14.60;1.00;;;;;;5112455;28;20187;-70
2022/04/25 12:38:07;;;;;;;20.00;14.43;;;14.50;1.00;;;;;;5111570;28;20179;-70
2022/04/25 12:40:56;;;;;;;16.93;13.53;;;14.30;1.00;;;;;;5113135;28;20186;-70
2022/04/25 12:43:35;;;;;;;15.90;13.23;;;14.00;1.00;;;;;;5112981;28;20641;-70
2022/04/25 12:46:02;;;;;;;15.53;13.17;;;13.90;1.00;;;;;;5112062;28;20252;-70
2022/04/25 12:48:27;;;;;;;16.73;13.77;;;13.80;1.00;;;;;;5112227;28;20168;-69
2022/04/25 12:50:53;;;;;;;12.57;11.33;;;13.60;1.00;;;;;;5112341;28;20598;-70
2022/04/25 12:53:39;;;;;;;16.57;12.23;;;13.30;1.00;;;;;;5111644;28;20167;-70
2022/04/25 12:56:04;;;;;;;13.97;10.80;;;13.20;1.00;;;;;;5112169;28;20168;-70
2022/04/25 12:58:34;;;;;;;19.80;12.87;;;12.90;1.00;;;;;;5111888;28;20190;-71
2022/04/25 13:01:00;;;;;;;13.40;11.97;;;12.80;1.00;;;;;;5110072;28;20300;-71
2022/04/25 13:03:26;;;;;;;16.33;14.40;;;12.70;1.00;;;;;;5105301;28;20246;-71
2022/04/25 13:05:53;;;;;;;14.93;11.10;;;12.70;1.00;;;;;;5111628;28;20211;-70
2022/04/25 13:08:20;;;;;;;15.10;12.53;;;12.80;1.00;;;;;;5112014;28;20264;-70
2022/04/25 13:10:46;;;;;;;14.20;11.57;;;12.80;1.00;;;;;;5110753;28;20197;-70
2022/04/25 13:13:11;;;;;;;13.83;12.17;;;12.90;1.00;;;;;;5112540;28;20171;-71
2022/04/25 13:15:38;;;;;;;15.73;14.13;;;13.00;1.00;;;;;;5110852;28;20274;-71
2022/04/25 13:18:04;;;;;;;15.47;13.00;;;13.00;1.00;;;;;;5110934;28;20171;-71
2022/04/25 13:20:31;;;;;;;18.40;14.97;;;13.10;1.00;;;;;;5111188;28;20660;-71
2022/04/25 13:22:59;;;;;;;15.70;14.03;;;13.30;1.00;;;;;;5112377;28;20654;-69